createdAt,value
2018-12-15T00:01:09.352Z,1.60
2018-12-15T00:03:39.236Z,1.60
2018-12-15T00:06:09.261Z,1.60
2018-12-15T00:08:37.519Z,1.60
2018-12-15T00:11:05.552Z,1.60
2018-12-15T00:13:33.532Z,1.70
2018-12-15T00:16:02.787Z,1.60
2018-12-15T00:18:30.904Z,1.60
2018-12-15T00:20:59.005Z,1.60
2018-12-15T00:23:26.920Z,1.50
2018-12-15T00:25:54.950Z,1.60
2018-12-15T00:28:22.910Z,1.60
2018-12-15T00:30:50.787Z,1.60
2018-12-15T00:33:18.988Z,1.50
2018-12-15T00:35:47.132Z,1.60
2018-12-15T00:38:14.985Z,1.60
2018-12-15T00:40:42.897Z,1.60
2018-12-15T00:43:10.712Z,1.60
2018-12-15T00:45:38.797Z,1.60
2018-12-15T00:48:06.672Z,1.60
2018-12-15T00:50:34.519Z,1.60
2018-12-15T00:53:02.502Z,1.60
2018-12-15T00:55:30.845Z,1.60
2018-12-15T00:57:58.745Z,1.60
2018-12-15T01:00:26.907Z,1.60
2018-12-15T01:02:54.844Z,1.60
2018-12-15T01:05:22.893Z,1.60
2018-12-15T01:07:50.857Z,1.70
2018-12-15T01:10:19.814Z,1.60
2018-12-15T01:12:47.615Z,1.70
2018-12-15T01:15:17.632Z,1.60
2018-12-15T01:17:46.850Z,1.60
2018-12-15T01:20:14.634Z,1.60
2018-12-15T01:22:42.893Z,1.60
2018-12-15T01:25:10.689Z,1.60
2018-12-15T01:27:38.522Z,1.60
2018-12-15T01:30:06.639Z,1.70
2018-12-15T01:32:34.948Z,1.70
2018-12-15T01:35:03.066Z,1.70
2018-12-15T01:37:31.283Z,1.70
2018-12-15T01:39:59.856Z,1.60
2018-12-15T01:42:27.910Z,1.60
2018-12-15T01:44:55.825Z,1.70
2018-12-15T01:47:26.959Z,1.60
2018-12-15T01:49:53.689Z,1.60
2018-12-15T01:52:21.691Z,1.50
2018-12-15T01:54:50.125Z,1.50
2018-12-15T01:57:17.992Z,1.50
2018-12-15T01:59:46.251Z,1.60
2018-12-15T02:02:14.209Z,1.60
2018-12-15T02:04:42.109Z,1.60
2018-12-15T02:07:10.505Z,1.60
2018-12-15T02:09:38.472Z,1.70
2018-12-15T02:12:06.605Z,1.50
2018-12-15T02:14:34.576Z,1.50
2018-12-15T02:17:02.637Z,1.50
2018-12-15T02:19:30.686Z,1.50
2018-12-15T02:21:58.784Z,1.50
2018-12-15T02:24:26.956Z,1.50
2018-12-15T02:26:54.829Z,1.50
2018-12-15T02:29:23.184Z,1.60
2018-12-15T02:31:51.361Z,1.50
2018-12-15T02:34:19.493Z,1.50
2018-12-15T02:36:47.536Z,1.50
2018-12-15T02:39:15.803Z,1.50
2018-12-15T02:41:47.160Z,1.50
2018-12-15T02:44:13.704Z,1.50
2018-12-15T02:46:41.727Z,1.50
2018-12-15T02:49:09.680Z,1.50
2018-12-15T02:51:37.712Z,1.40
2018-12-15T02:54:05.948Z,1.50
2018-12-15T02:56:34.569Z,1.40
2018-12-15T02:59:02.526Z,1.50
2018-12-15T03:01:30.486Z,1.40
2018-12-15T03:03:59.070Z,1.40
2018-12-15T03:06:27.125Z,1.40
2018-12-15T03:09:00.182Z,1.40
2018-12-15T03:11:28.101Z,1.30
2018-12-15T03:13:57.080Z,1.30
2018-12-15T03:16:26.069Z,1.30
2018-12-15T03:18:54.765Z,1.30
2018-12-15T03:21:22.560Z,1.30
2018-12-15T03:23:50.665Z,1.30
2018-12-15T03:26:18.528Z,1.20
2018-12-15T03:28:46.436Z,1.20
2018-12-15T03:31:14.322Z,1.30
2018-12-15T03:33:42.117Z,1.20
2018-12-15T03:36:10.262Z,1.20
2018-12-15T03:38:38.225Z,1.20
2018-12-15T03:41:06.073Z,1.20
2018-12-15T03:43:33.933Z,1.20
2018-12-15T03:46:02.623Z,1.20
2018-12-15T03:48:30.481Z,1.20
2018-12-15T03:50:58.319Z,1.30
2018-12-15T03:53:27.368Z,1.20
2018-12-15T03:55:55.160Z,1.20
2018-12-15T03:58:23.175Z,1.30
2018-12-15T04:00:51.023Z,1.30
2018-12-15T04:03:18.965Z,1.20
2018-12-15T04:05:46.898Z,1.20
2018-12-15T04:08:14.767Z,1.20
2018-12-15T04:10:42.657Z,1.20
2018-12-15T04:13:10.569Z,1.20
2018-12-15T04:15:38.569Z,1.20
2018-12-15T04:18:06.688Z,1.20
2018-12-15T04:20:35.730Z,1.20
2018-12-15T04:23:03.937Z,1.20
2018-12-15T04:25:31.849Z,1.20
2018-12-15T04:27:59.647Z,1.20
2018-12-15T04:30:27.826Z,1.20
2018-12-15T04:32:55.688Z,1.20
2018-12-15T04:35:23.666Z,1.10
2018-12-15T04:37:51.750Z,1.20
2018-12-15T04:40:20.265Z,1.20
2018-12-15T04:42:48.255Z,1.10
2018-12-15T04:45:16.958Z,1.10
2018-12-15T04:47:44.891Z,1.10
2018-12-15T04:50:12.801Z,1.10
2018-12-15T04:52:40.604Z,1.10
2018-12-15T04:55:08.695Z,1.10
2018-12-15T04:57:36.538Z,1.20
2018-12-15T05:00:05.505Z,1.10
2018-12-15T05:02:43.582Z,1.10
2018-12-15T05:05:08.151Z,1.10
2018-12-15T05:07:36.159Z,1.10
2018-12-15T05:10:04.735Z,1.10
2018-12-15T05:12:32.764Z,1.10
2018-12-15T05:15:00.696Z,1.10
2018-12-15T05:17:28.564Z,1.10
2018-12-15T05:19:56.680Z,1.10
2018-12-15T05:22:24.816Z,1.00
2018-12-15T05:24:52.800Z,1.00
2018-12-15T05:27:23.331Z,1.00
2018-12-15T05:29:51.161Z,1.00
2018-12-15T05:32:19.100Z,1.00
2018-12-15T05:34:47.117Z,1.00
2018-12-15T05:37:15.057Z,1.00
2018-12-15T05:39:45.516Z,1.00
2018-12-15T05:42:13.521Z,1.10
2018-12-15T05:44:41.596Z,1.00
2018-12-15T05:47:09.457Z,1.10
2018-12-15T05:49:37.366Z,1.10
2018-12-15T05:52:05.340Z,1.10
2018-12-15T05:54:33.269Z,1.00
2018-12-15T05:57:01.157Z,1.00
2018-12-15T05:59:28.975Z,1.00
2018-12-15T06:01:57.145Z,1.00
2018-12-15T06:04:25.105Z,1.00
2018-12-15T06:06:53.052Z,1.00
2018-12-15T06:09:21.289Z,1.00
2018-12-15T06:11:49.198Z,1.00
2018-12-15T06:14:17.011Z,1.00
2018-12-15T06:16:49.001Z,0.90
2018-12-15T06:19:16.879Z,1.00
2018-12-15T06:21:44.814Z,1.00
2018-12-15T06:24:15.353Z,1.00
2018-12-15T06:26:44.461Z,0.90
2018-12-15T06:29:12.473Z,0.90
2018-12-15T06:31:40.381Z,0.90
2018-12-15T06:34:08.290Z,0.90
2018-12-15T06:36:36.364Z,1.00
2018-12-15T06:41:40.892Z,0.90
2018-12-15T06:44:08.823Z,0.90
2018-12-15T06:46:40.347Z,0.90
2018-12-15T06:49:08.245Z,0.90
2018-12-15T06:51:36.127Z,0.90
2018-12-15T06:54:04.283Z,0.90
2018-12-15T06:56:32.763Z,0.90
2018-12-15T06:59:00.671Z,0.90
2018-12-15T07:01:28.636Z,0.90
2018-12-15T07:03:56.456Z,0.90
2018-12-15T07:06:24.706Z,0.90
2018-12-15T07:08:52.624Z,0.90
2018-12-15T07:11:20.492Z,1.00
2018-12-15T07:13:50.327Z,1.00
2018-12-15T07:16:18.497Z,1.00
2018-12-15T07:18:46.469Z,1.00
2018-12-15T07:21:14.488Z,1.00
2018-12-15T07:23:42.434Z,1.00
2018-12-15T07:26:10.485Z,1.00
2018-12-15T07:28:38.814Z,1.00
2018-12-15T07:31:06.879Z,1.00
2018-12-15T07:33:34.884Z,1.10
2018-12-15T07:36:03.398Z,1.10
2018-12-15T07:38:31.462Z,1.10
2018-12-15T07:40:59.547Z,1.10
2018-12-15T07:43:27.445Z,1.10
2018-12-15T07:45:55.390Z,1.10
2018-12-15T07:48:23.246Z,1.10
2018-12-15T07:50:51.110Z,1.00
2018-12-15T07:53:21.453Z,1.10
2018-12-15T07:55:49.438Z,1.20
2018-12-15T07:58:17.243Z,1.20
2018-12-15T08:00:45.749Z,1.20
2018-12-15T08:03:13.593Z,1.10
2018-12-15T08:05:44.109Z,1.20
2018-12-15T08:08:12.231Z,1.20
2018-12-15T08:10:45.844Z,1.20
2018-12-15T08:13:19.520Z,1.20
2018-12-15T08:15:47.450Z,1.20
2018-12-15T08:18:15.515Z,1.20
2018-12-15T08:20:43.416Z,1.30
2018-12-15T08:23:11.328Z,1.20
2018-12-15T08:25:39.297Z,1.20
2018-12-15T08:28:07.085Z,1.20
2018-12-15T08:30:35.018Z,1.20
2018-12-15T08:33:03.350Z,1.20
2018-12-15T08:35:31.260Z,1.20
2018-12-15T08:37:59.405Z,1.30
2018-12-15T08:40:27.890Z,1.20
2018-12-15T08:42:56.518Z,1.30
2018-12-15T08:45:24.481Z,1.30
2018-12-15T08:47:52.899Z,1.30
2018-12-15T08:50:21.044Z,1.20
2018-12-15T08:52:48.824Z,1.20
2018-12-15T08:55:17.787Z,1.20
2018-12-15T08:57:45.961Z,1.00
2018-12-15T09:00:16.442Z,1.20
2018-12-15T09:02:44.660Z,1.20
2018-12-15T09:05:12.589Z,1.30
2018-12-15T09:07:40.665Z,1.20
2018-12-15T09:10:10.447Z,1.20
2018-12-15T09:12:40.011Z,1.20
2018-12-15T09:15:14.499Z,1.20
2018-12-15T09:17:45.837Z,1.20
2018-12-15T09:20:38.542Z,1.20
2018-12-15T09:23:17.118Z,1.20
2018-12-15T09:25:49.890Z,1.20
2018-12-15T09:28:17.902Z,1.30
2018-12-15T09:30:47.054Z,1.30
2018-12-15T09:33:14.996Z,1.30
2018-12-15T09:35:42.916Z,1.30
2018-12-15T09:38:10.996Z,1.30
2018-12-15T09:40:39.545Z,1.40
2018-12-15T09:43:07.513Z,1.30
2018-12-15T09:45:37.909Z,1.30
2018-12-15T09:48:07.540Z,1.30
2018-12-15T09:50:36.475Z,1.40
2018-12-15T09:53:05.937Z,1.40
2018-12-15T09:55:35.578Z,1.40
2018-12-15T09:58:03.822Z,1.40
2018-12-15T10:00:32.809Z,1.40
2018-12-15T10:03:00.954Z,1.40
2018-12-15T10:05:29.305Z,1.50
2018-12-15T10:07:57.676Z,1.40
2018-12-15T10:10:26.112Z,1.40
2018-12-15T10:12:54.144Z,1.50
2018-12-15T10:15:22.524Z,1.40
2018-12-15T10:17:53.689Z,1.50
2018-12-15T10:20:23.785Z,1.50
2018-12-15T10:22:52.034Z,1.60
2018-12-15T10:25:24.748Z,1.50
2018-12-15T10:27:56.692Z,1.50
2018-12-15T10:30:30.375Z,1.50
2018-12-15T10:32:58.379Z,1.40
2018-12-15T10:35:26.442Z,1.40
2018-12-15T10:37:55.348Z,1.50
2018-12-15T10:40:23.280Z,1.40
2018-12-15T10:42:51.302Z,1.40
2018-12-15T10:45:20.562Z,1.40
2018-12-15T10:47:48.863Z,1.40
2018-12-15T10:50:17.713Z,1.40
2018-12-15T10:52:47.183Z,1.40
2018-12-15T10:55:17.888Z,1.40
2018-12-15T10:57:47.506Z,1.40
2018-12-15T11:00:23.568Z,1.40
2018-12-15T11:02:57.829Z,1.40
2018-12-15T11:05:26.955Z,1.40
2018-12-15T11:07:58.485Z,1.50
2018-12-15T11:10:28.629Z,1.40
2018-12-15T11:13:01.539Z,1.40
2018-12-15T11:15:31.616Z,1.40
2018-12-15T11:17:59.609Z,1.40
2018-12-15T11:20:29.994Z,1.30
2018-12-15T11:22:57.977Z,1.40
2018-12-15T11:25:26.290Z,1.40
2018-12-15T11:27:54.221Z,1.40
2018-12-15T11:30:22.099Z,1.40
2018-12-15T11:32:50.113Z,1.40
2018-12-15T11:35:18.204Z,1.40
2018-12-15T11:37:46.184Z,1.40
2018-12-15T11:40:14.185Z,1.50
2018-12-15T11:42:42.335Z,1.40
2018-12-15T11:45:10.308Z,1.50
2018-12-15T11:47:39.525Z,1.50
2018-12-15T11:50:08.093Z,1.40
2018-12-15T11:52:36.910Z,1.40
2018-12-15T11:55:05.579Z,1.40
2018-12-15T11:57:47.309Z,1.30
2018-12-15T12:00:16.051Z,1.40
2018-12-15T12:02:44.234Z,1.30
2018-12-15T12:05:13.499Z,1.40
2018-12-15T12:10:40.835Z,1.30
2018-12-15T12:13:08.918Z,1.30
2018-12-15T12:15:37.454Z,1.40
2018-12-15T12:18:05.969Z,1.40
2018-12-15T12:20:34.177Z,1.40
2018-12-15T12:23:03.477Z,1.30
2018-12-15T12:25:33.492Z,1.40
2018-12-15T12:28:03.826Z,1.20
2018-12-15T12:30:32.924Z,1.30
2018-12-15T12:33:00.983Z,1.30
2018-12-15T12:35:29.380Z,1.30
2018-12-15T12:37:57.302Z,1.30
2018-12-15T12:40:25.313Z,1.40
2018-12-15T12:42:53.270Z,1.30
2018-12-15T12:45:21.409Z,1.30
2018-12-15T12:47:49.457Z,1.30
2018-12-15T12:50:17.552Z,1.40
2018-12-15T12:52:45.629Z,1.40
2018-12-15T12:55:13.701Z,1.30
2018-12-15T12:57:41.950Z,1.30
2018-12-15T13:00:10.016Z,1.30
2018-12-15T13:02:39.949Z,1.30
2018-12-15T13:05:08.167Z,1.30
2018-12-15T13:07:36.146Z,1.30
2018-12-15T13:10:04.950Z,1.30
2018-12-15T13:12:33.239Z,1.30
2018-12-15T13:15:01.703Z,1.20
2018-12-15T13:17:29.961Z,1.20
2018-12-15T13:20:03.700Z,1.20
2018-12-15T13:22:28.300Z,1.20
2018-12-15T13:24:56.419Z,1.20
2018-12-15T13:27:24.562Z,1.20
2018-12-15T13:29:52.503Z,1.20
2018-12-15T13:32:20.526Z,1.20
2018-12-15T13:34:55.106Z,1.20
2018-12-15T13:37:23.237Z,1.20
2018-12-15T13:39:52.202Z,1.10
2018-12-15T13:42:20.236Z,1.10
2018-12-15T13:44:49.127Z,1.10
2018-12-15T13:47:18.024Z,1.10
2018-12-15T13:49:46.074Z,1.10
2018-12-15T13:52:23.121Z,1.10
2018-12-15T13:54:51.063Z,1.10
2018-12-15T13:57:18.973Z,1.20
2018-12-15T13:59:54.168Z,1.10
2018-12-15T14:02:23.964Z,1.10
2018-12-15T14:04:51.961Z,1.00
2018-12-15T14:07:20.608Z,1.00
2018-12-15T14:12:23.281Z,1.00
2018-12-15T14:14:51.197Z,0.90
2018-12-15T14:17:20.033Z,0.90
2018-12-15T14:19:52.066Z,0.90
2018-12-15T14:22:19.992Z,0.90
2018-12-15T14:24:48.791Z,0.90
2018-12-15T14:27:36.999Z,0.90
2018-12-15T14:30:05.790Z,0.90
2018-12-15T14:32:33.831Z,0.90
2018-12-15T14:35:02.359Z,0.90
2018-12-15T14:37:30.336Z,0.90
2018-12-15T14:39:58.361Z,0.90
2018-12-15T14:42:26.445Z,0.80
2018-12-15T14:45:51.021Z,0.80
2018-12-15T14:48:18.973Z,0.80
2018-12-15T14:53:31.391Z,0.80
2018-12-15T14:55:59.161Z,0.80
2018-12-15T14:58:26.986Z,0.80
2018-12-15T15:00:55.134Z,0.80
2018-12-15T15:03:23.572Z,0.80
2018-12-15T15:05:51.572Z,0.80
2018-12-15T15:08:19.522Z,0.80
2018-12-15T15:10:47.707Z,0.80
2018-12-15T15:13:15.638Z,0.70
2018-12-15T15:15:43.521Z,0.70
2018-12-15T15:18:11.292Z,0.70
2018-12-15T15:20:39.481Z,0.80
2018-12-15T15:23:08.438Z,0.70
2018-12-15T15:25:36.396Z,0.70
2018-12-15T15:28:04.438Z,0.70
2018-12-15T15:30:32.772Z,0.80
2018-12-15T15:33:00.829Z,0.70
2018-12-15T15:35:39.515Z,0.70
2018-12-15T15:38:07.511Z,0.70
2018-12-15T15:40:35.861Z,0.70
2018-12-15T15:43:04.184Z,0.70
2018-12-15T15:45:32.053Z,0.70
2018-12-15T15:48:00.050Z,0.70
2018-12-15T15:50:28.049Z,0.70
2018-12-15T15:52:55.922Z,0.70
2018-12-15T15:55:24.849Z,0.70
2018-12-15T15:57:52.949Z,0.70
2018-12-15T16:00:21.253Z,0.70
2018-12-15T16:05:25.634Z,0.80
2018-12-15T16:07:53.768Z,0.70
2018-12-15T16:10:22.006Z,0.70
2018-12-15T16:12:56.945Z,0.70
2018-12-15T16:15:25.406Z,0.70
2018-12-15T16:17:53.290Z,0.70
2018-12-15T16:20:21.514Z,0.60
2018-12-15T16:22:49.422Z,0.60
2018-12-15T16:25:18.316Z,0.60
2018-12-15T16:27:46.428Z,0.60
2018-12-15T16:30:14.681Z,0.60
2018-12-15T16:32:42.769Z,0.60
2018-12-15T16:35:11.175Z,0.60
2018-12-15T16:37:44.580Z,0.50
2018-12-15T16:40:12.689Z,0.50
2018-12-15T16:42:40.766Z,0.60
2018-12-15T16:45:11.565Z,0.60
2018-12-15T16:47:39.701Z,0.60
2018-12-15T16:50:12.523Z,0.50
2018-12-15T16:52:40.937Z,0.50
2018-12-15T16:55:09.572Z,0.50
2018-12-15T16:57:37.676Z,0.50
2018-12-15T17:00:11.645Z,0.50
2018-12-15T17:02:39.997Z,0.50
2018-12-15T17:05:08.272Z,0.50
2018-12-15T17:07:36.541Z,0.50
2018-12-15T17:10:07.031Z,0.40
2018-12-15T17:12:35.259Z,0.40
2018-12-15T17:15:05.394Z,0.30
2018-12-15T17:17:33.627Z,0.40
2018-12-15T17:20:01.817Z,0.30
2018-12-15T17:22:30.308Z,0.30
2018-12-15T17:24:58.282Z,0.30
2018-12-15T17:27:30.016Z,0.30
2018-12-15T17:29:59.122Z,0.30
2018-12-15T17:32:28.209Z,0.20
2018-12-15T17:34:56.525Z,0.10
2018-12-15T17:37:32.110Z,0.30
2018-12-15T17:40:01.682Z,0.10
2018-12-15T17:42:31.213Z,0.00
2018-12-15T17:44:59.969Z,0.00
2018-12-15T17:47:28.511Z,0.00
2018-12-15T17:49:57.324Z,0.00
2018-12-15T17:52:25.695Z,0.00
2018-12-15T17:54:54.518Z,0.00
2018-12-15T17:57:22.437Z,0.00
2018-12-15T17:59:50.329Z,0.00
2018-12-15T18:02:18.349Z,0.00
2018-12-15T18:04:46.176Z,0.00
2018-12-15T18:07:14.104Z,0.10
2018-12-15T18:09:42.077Z,0.10
2018-12-15T18:12:11.168Z,0.10
2018-12-15T18:14:39.219Z,0.10
2018-12-15T18:17:07.209Z,0.10
2018-12-15T18:19:35.362Z,0.10
2018-12-15T18:22:04.176Z,0.00
2018-12-15T18:24:40.975Z,0.10
2018-12-15T18:27:14.532Z,0.00
2018-12-15T18:29:43.116Z,0.00
2018-12-15T18:32:14.093Z,0.00
2018-12-15T18:34:44.851Z,0.00
2018-12-15T18:37:12.900Z,0.00
2018-12-15T18:39:40.922Z,0.00
2018-12-15T18:42:10.957Z,0.00
2018-12-15T18:44:39.405Z,0.00
2018-12-15T18:47:08.672Z,0.00
2018-12-15T18:49:36.637Z,0.00
2018-12-15T18:52:04.893Z,0.00
2018-12-15T18:54:33.068Z,0.00
2018-12-15T18:57:02.516Z,-0.10
2018-12-15T18:59:32.388Z,-0.20
2018-12-15T19:02:00.971Z,-0.10
2018-12-15T19:04:29.364Z,-0.10
2018-12-15T19:06:58.898Z,-0.20
2018-12-15T19:09:27.705Z,-0.20
2018-12-15T19:11:56.174Z,-0.20
2018-12-15T19:14:24.570Z,-0.20
2018-12-15T19:16:53.235Z,-0.20
2018-12-15T19:19:21.793Z,-0.20
2018-12-15T19:21:50.100Z,-0.20
2018-12-15T19:24:18.706Z,-0.20
2018-12-15T19:26:46.774Z,-0.20
2018-12-15T19:29:14.929Z,-0.20
2018-12-15T19:31:42.797Z,-0.20
2018-12-15T19:34:17.331Z,-0.30
2018-12-15T19:36:41.183Z,-0.30
2018-12-15T19:39:09.090Z,-0.30
2018-12-15T19:41:38.972Z,-0.30
2018-12-15T19:44:06.889Z,-0.30
2018-12-15T19:46:34.958Z,-0.30
2018-12-15T19:49:03.554Z,-0.30
2018-12-15T19:51:31.373Z,-0.30
2018-12-15T19:53:59.661Z,-0.30
2018-12-15T19:56:27.645Z,-0.30
2018-12-15T19:58:55.455Z,-0.30
2018-12-15T20:01:23.433Z,-0.30
2018-12-15T20:03:51.566Z,-0.30
2018-12-15T20:06:19.522Z,-0.30
2018-12-15T20:08:47.414Z,-0.30
2018-12-15T20:11:15.345Z,-0.30
2018-12-15T20:13:43.320Z,-0.30
2018-12-15T20:16:11.433Z,-0.30
2018-12-15T20:18:53.686Z,-0.30
2018-12-15T20:21:23.491Z,-0.30
2018-12-15T20:23:58.469Z,-0.30
2018-12-15T20:26:26.288Z,-0.30
2018-12-15T20:28:54.200Z,-0.20
2018-12-15T20:31:22.027Z,-0.20
2018-12-15T20:33:49.967Z,-0.20
2018-12-15T20:36:19.197Z,-0.20
2018-12-15T20:38:47.241Z,-0.20
2018-12-15T20:41:19.318Z,-0.20
2018-12-15T20:43:47.916Z,-0.20
2018-12-15T20:46:15.876Z,-0.20
2018-12-15T20:48:52.554Z,-0.10
2018-12-15T20:51:20.498Z,-0.20
2018-12-15T20:53:56.795Z,-0.10
2018-12-15T20:59:05.738Z,-0.20
2018-12-15T21:06:46.244Z,-0.20
2018-12-15T21:09:14.137Z,-0.10
2018-12-15T21:11:42.119Z,-0.20
2018-12-15T21:14:10.230Z,-0.20
2018-12-15T21:16:38.580Z,-0.20
2018-12-15T21:19:06.506Z,-0.20
2018-12-15T21:21:34.510Z,-0.20
2018-12-15T21:24:02.470Z,-0.10
2018-12-15T21:26:31.499Z,-0.10
2018-12-15T21:28:59.774Z,-0.10
2018-12-15T21:34:08.002Z,-0.10
2018-12-15T21:36:36.390Z,-0.10
2018-12-15T21:39:06.836Z,-0.10
2018-12-15T21:41:46.213Z,-0.10
2018-12-15T21:44:14.226Z,-0.10
2018-12-15T21:46:42.181Z,-0.10
2018-12-15T21:49:10.016Z,-0.10
2018-12-15T21:51:37.874Z,-0.10
2018-12-15T21:54:05.891Z,-0.10
2018-12-15T21:56:33.862Z,-0.10
2018-12-15T21:59:01.813Z,-0.10
2018-12-15T22:01:29.802Z,-0.20
2018-12-15T22:03:57.868Z,-0.10
2018-12-15T22:06:32.629Z,-0.10
2018-12-15T22:09:00.539Z,-0.10
2018-12-15T22:11:28.738Z,-0.10
2018-12-15T22:13:56.635Z,-0.10
2018-12-15T22:16:26.485Z,-0.10
2018-12-15T22:18:54.537Z,-0.10
2018-12-15T22:21:22.704Z,-0.10
2018-12-15T22:23:51.867Z,-0.10
2018-12-15T22:26:19.759Z,-0.10
2018-12-15T22:28:47.699Z,-0.10
2018-12-15T22:31:15.650Z,-0.10
2018-12-15T22:33:43.563Z,-0.10
2018-12-15T22:36:11.490Z,-0.20
2018-12-15T22:38:40.158Z,-0.20
2018-12-15T22:41:08.483Z,-0.10
2018-12-15T22:43:36.474Z,-0.10
2018-12-15T22:46:04.704Z,-0.10
2018-12-15T22:48:32.690Z,-0.10
2018-12-15T22:51:00.768Z,-0.10
2018-12-15T22:53:33.813Z,-0.10
2018-12-15T22:56:01.730Z,-0.10
2018-12-15T22:58:29.755Z,-0.10
2018-12-15T23:01:07.775Z,-0.10
2018-12-15T23:03:37.921Z,-0.10
2018-12-15T23:06:06.075Z,-0.10
2018-12-15T23:08:34.411Z,-0.10
2018-12-15T23:11:02.669Z,-0.10
2018-12-15T23:13:30.738Z,-0.10
2018-12-15T23:15:58.743Z,-0.10
2018-12-15T23:18:26.609Z,-0.10
2018-12-15T23:20:54.515Z,-0.10
2018-12-15T23:23:23.677Z,-0.10
2018-12-15T23:25:52.790Z,-0.10
2018-12-15T23:28:20.800Z,-0.10
2018-12-15T23:30:48.716Z,0.00
2018-12-15T23:33:16.653Z,-0.10
2018-12-15T23:35:44.749Z,-0.10
2018-12-15T23:38:12.956Z,-0.10
2018-12-15T23:40:40.862Z,0.00
2018-12-15T23:43:09.274Z,-0.10
2018-12-15T23:45:38.310Z,-0.10
2018-12-15T23:48:06.305Z,-0.10
2018-12-15T23:50:34.332Z,0.00
2018-12-15T23:53:02.256Z,-0.10
2018-12-15T23:55:30.207Z,0.00
2018-12-15T23:57:58.055Z,-0.10
